Time,TemperatureF,DewpointF,PressureIn,WindDirection,WindDirectionDegrees,WindSpeedMPH,WindSpeedGustMPH,Humidity,HourlyPrecipIn,Conditions,Clouds,dailyrainin,SolarRadiationWatts/m^2,SoftwareType,DateUTC
2013-01-16 00:00:00,29.9,25.1,29.83,ENE,63,1.0,3.0,82,0.00,,---,0.00,0.00,VWS V14.01,2013-01-16 05:00:00,
2013-01-16 00:02:00,29.9,25.1,29.83,ENE,63,3.0,4.0,82,0.00,,---,0.00,0.00,VWS V14.01,2013-01-16 05:02:00,
2013-01-16 00:07:00,29.9,25.1,29.83,ENE,63,2.0,3.0,82,0.00,,---,0.00,0.00,VWS V14.01,2013-01-16 05:07:00,
2013-01-16 00:12:00,29.9,25.1,29.83,ENE,63,3.0,5.0,82,0.00,,---,0.00,0.00,VWS V14.01,2013-01-16 05:12:00,
2013-01-16 00:17:00,29.9,25.1,29.81,ENE,63,3.0,5.0,82,0.00,,---,0.00,0.00,VWS V14.01,2013-01-16 05:17:00,
2013-01-16 00:22:00,29.9,25.1,29.81,ENE,63,3.0,5.0,82,0.00,,---,0.00,0.00,VWS V14.01,2013-01-16 05:22:00,
2013-01-16 00:27:00,29.9,25.1,29.81,ENE,63,3.0,5.0,82,0.00,,---,0.00,0.00,VWS V14.01,2013-01-16 05:27:00,
2013-01-16 00:32:00,29.9,25.1,29.80,ENE,63,2.0,4.0,82,0.00,,---,0.00,0.00,VWS V14.01,2013-01-16 05:32:00,
2013-01-16 00:37:00,29.9,25.1,29.80,ENE,63,3.0,3.0,82,0.00,,---,0.00,0.00,VWS V14.01,2013-01-16 05:37:00,
2013-01-16 00:42:00,29.9,25.1,29.80,ENE,63,3.0,6.0,82,0.00,,---,0.00,0.00,VWS V14.01,2013-01-16 05:42:00,
2013-01-16 00:47:00,29.9,25.1,29.80,ENE,63,1.0,3.0,82,0.00,,---,0.00,0.00,VWS V14.01,2013-01-16 05:47:00,
2013-01-16 00:52:00,29.8,25.0,29.79,ENE,63,1.0,3.0,82,0.00,,---,0.00,0.00,VWS V14.01,2013-01-16 05:52:00,
2013-01-16 00:57:00,29.9,25.1,29.78,ENE,63,4.0,4.0,82,0.00,,---,0.00,0.00,VWS V14.01,2013-01-16 05:57:00,
2013-01-16 01:02:00,29.8,25.0,29.80,ENE,63,4.0,4.0,82,0.00,,---,0.00,0.00,VWS V14.01,2013-01-16 06:02:00,
2013-01-16 01:07:00,29.8,25.0,29.80,ENE,63,3.0,3.0,82,0.00,,---,0.00,0.00,VWS V14.01,2013-01-16 06:07:00,
2013-01-16 01:12:00,29.8,25.0,29.79,ENE,63,2.0,2.0,82,0.00,,---,0.00,0.00,VWS V14.01,2013-01-16 06:12:00,
2013-01-16 01:17:00,29.8,25.0,29.79,ENE,63,0.0,0.0,82,0.00,,---,0.00,0.00,VWS V14.01,2013-01-16 06:17:00,
2013-01-16 01:22:00,29.8,25.0,29.78,ENE,63,2.0,3.0,82,0.00,,---,0.00,0.00,VWS V14.01,2013-01-16 06:22:00,
2013-01-16 01:27:00,29.8,25.3,29.79,ENE,63,0.0,0.0,83,0.00,,---,0.00,0.00,VWS V14.01,2013-01-16 06:27:00,
2013-01-16 01:32:00,29.8,25.3,29.78,ENE,63,0.0,1.0,83,0.00,,---,0.00,0.00,VWS V14.01,2013-01-16 06:32:00,
2013-01-16 01:37:00,29.8,25.3,29.79,ENE,63,0.0,4.0,83,0.00,,---,0.00,0.00,VWS V14.01,2013-01-16 06:37:00,
2013-01-16 01:42:00,29.9,25.4,29.80,ENE,63,0.0,2.0,83,0.00,,---,0.00,0.00,VWS V14.01,2013-01-16 06:42:00,
2013-01-16 01:47:00,29.9,25.7,29.80,ENE,63,0.0,0.0,84,0.00,,---,0.00,0.00,VWS V14.01,2013-01-16 06:47:00,
2013-01-16 01:52:00,30.0,25.8,29.81,ENE,63,0.0,0.0,84,0.00,,---,0.00,0.00,VWS V14.01,2013-01-16 06:52:00,
2013-01-16 01:57:00,30.1,26.1,29.80,ENE,63,0.0,0.0,85,0.00,,---,0.00,0.00,VWS V14.01,2013-01-16 06:57:00,
2013-01-16 02:02:00,30.1,25.9,29.80,ENE,63,0.0,0.0,84,0.00,,---,0.00,0.00,VWS V14.01,2013-01-16 07:02:00,
2013-01-16 02:07:00,30.1,25.9,29.80,ENE,63,0.0,0.0,84,0.00,,---,0.00,0.00,VWS V14.01,2013-01-16 07:07:00,
2013-01-16 02:12:00,30.1,25.9,29.80,ENE,63,1.0,3.0,84,0.00,,---,0.00,0.00,VWS V14.01,2013-01-16 07:12:00,
2013-01-16 02:17:00,30.1,26.1,29.81,ENE,63,0.0,0.0,85,0.00,,---,0.00,0.00,VWS V14.01,2013-01-16 07:17:00,
2013-01-16 02:22:00,30.1,26.1,29.80,ENE,63,0.0,0.0,85,0.00,,---,0.00,0.00,VWS V14.01,2013-01-16 07:22:00,
2013-01-16 02:27:00,30.1,26.1,29.80,ENE,63,0.0,0.0,85,0.00,,---,0.00,0.00,VWS V14.01,2013-01-16 07:27:00,
2013-01-16 02:32:00,30.0,26.0,29.79,ENE,63,0.0,0.0,85,0.00,,---,0.00,0.00,VWS V14.01,2013-01-16 07:32:00,
2013-01-16 02:37:00,29.9,25.7,29.79,ENE,63,0.0,0.0,84,0.00,,---,0.00,0.00,VWS V14.01,2013-01-16 07:37:00,
2013-01-16 02:42:00,29.8,25.6,29.78,ENE,63,0.0,0.0,84,0.00,,---,0.00,0.00,VWS V14.01,2013-01-16 07:42:00,
2013-01-16 02:47:00,29.7,25.5,29.79,ENE,63,0.0,0.0,84,0.00,,---,0.00,0.00,VWS V14.01,2013-01-16 07:47:00,
2013-01-16 02:52:00,29.6,25.6,29.79,ENE,63,0.0,0.0,85,0.00,,---,0.00,0.00,VWS V14.01,2013-01-16 07:52:00,
2013-01-16 02:57:00,29.6,25.6,29.78,ENE,63,0.0,0.0,85,0.00,,---,0.00,0.00,VWS V14.01,2013-01-16 07:57:00,
2013-01-16 03:02:00,29.5,25.6,29.79,ENE,63,0.0,0.0,85,0.00,,---,0.00,0.00,VWS V14.01,2013-01-16 08:02:00,
2013-01-16 03:07:00,29.4,25.5,29.78,ENE,63,0.0,0.0,85,0.00,,---,0.00,0.00,VWS V14.01,2013-01-16 08:07:00,
2013-01-16 03:12:00,29.4,25.5,29.78,ENE,63,0.0,0.0,85,0.00,,---,0.00,0.00,VWS V14.01,2013-01-16 08:12:00,
2013-01-16 03:17:00,29.3,25.4,29.78,ENE,63,0.0,0.0,85,0.00,,---,0.00,0.00,VWS V14.01,2013-01-16 08:17:00,
2013-01-16 03:22:00,29.3,25.4,29.77,ENE,63,0.0,0.0,85,0.00,,---,0.00,0.00,VWS V14.01,2013-01-16 08:22:00,
2013-01-16 03:27:00,29.2,25.3,29.77,ENE,63,0.0,0.0,85,0.00,,---,0.00,0.00,VWS V14.01,2013-01-16 08:27:00,
2013-01-16 03:32:00,29.2,25.3,29.76,ENE,63,0.0,0.0,85,0.00,,---,0.00,0.00,VWS V14.01,2013-01-16 08:32:00,
2013-01-16 03:37:00,29.2,25.3,29.76,ENE,63,0.0,0.0,85,0.00,,---,0.00,0.00,VWS V14.01,2013-01-16 08:37:00,
2013-01-16 03:42:00,29.1,25.2,29.76,ENE,63,0.0,0.0,85,0.00,,---,0.00,0.00,VWS V14.01,2013-01-16 08:42:00,
2013-01-16 03:47:00,29.1,25.2,29.76,ENE,63,0.0,0.0,85,0.00,,---,0.00,0.00,VWS V14.01,2013-01-16 08:47:00,
2013-01-16 03:52:00,29.1,25.4,29.75,ENE,63,0.0,0.0,86,0.00,,---,0.00,0.00,VWS V14.01,2013-01-16 08:52:00,
2013-01-16 03:57:00,29.1,25.4,29.74,ENE,63,0.0,0.0,86,0.00,,---,0.00,0.00,VWS V14.01,2013-01-16 08:57:00,
2013-01-16 04:02:00,29.0,25.4,29.75,ENE,63,0.0,0.0,86,0.00,,---,0.00,0.00,VWS V14.01,2013-01-16 09:02:00,
2013-01-16 04:07:00,29.0,25.4,29.75,ENE,63,0.0,0.0,86,0.00,,---,0.00,0.00,VWS V14.01,2013-01-16 09:07:00,
2013-01-16 04:12:00,29.2,25.5,29.75,ENE,63,0.0,0.0,86,0.00,,---,0.00,0.00,VWS V14.01,2013-01-16 09:12:00,
2013-01-16 04:17:00,29.3,25.9,29.75,ENE,63,0.0,0.0,87,0.00,,---,0.00,0.00,VWS V14.01,2013-01-16 09:17:00,
2013-01-16 04:22:00,29.5,26.1,29.75,ENE,63,0.0,0.0,87,0.00,,---,0.00,0.00,VWS V14.01,2013-01-16 09:22:00,
2013-01-16 04:27:00,29.7,26.3,29.76,ENE,63,0.0,0.0,87,0.00,,---,0.00,0.00,VWS V14.01,2013-01-16 09:27:00,
2013-01-16 04:32:00,29.8,26.4,29.75,ENE,63,0.0,0.0,87,0.00,,---,0.00,0.00,VWS V14.01,2013-01-16 09:32:00,
2013-01-16 04:37:00,29.8,26.4,29.76,ENE,63,0.0,0.0,87,0.00,,---,0.00,0.00,VWS V14.01,2013-01-16 09:37:00,
2013-01-16 04:42:00,29.8,26.4,29.76,ENE,63,0.0,0.0,87,0.00,,---,0.00,0.00,VWS V14.01,2013-01-16 09:42:00,
2013-01-16 04:47:00,30.0,26.9,29.75,ENE,63,0.0,0.0,88,0.00,,---,0.00,0.00,VWS V14.01,2013-01-16 09:47:00,
2013-01-16 04:52:00,30.1,27.0,29.75,ENE,63,0.0,0.0,88,0.00,,---,0.00,0.00,VWS V14.01,2013-01-16 09:52:00,
2013-01-16 04:57:00,30.1,27.0,29.74,ENE,63,2.0,4.0,88,0.00,,---,0.00,0.00,VWS V14.01,2013-01-16 09:57:00,
2013-01-16 05:02:00,30.1,27.0,29.75,ENE,63,3.0,4.0,88,0.00,,---,0.00,0.00,VWS V14.01,2013-01-16 10:02:00,
2013-01-16 05:07:00,30.1,27.0,29.75,ENE,63,0.0,0.0,88,0.00,,---,0.00,0.00,VWS V14.01,2013-01-16 10:07:00,
2013-01-16 05:12:00,30.1,27.0,29.74,ENE,63,4.0,4.0,88,0.00,,---,0.00,0.00,VWS V14.01,2013-01-16 10:12:00,
2013-01-16 05:17:00,30.1,27.0,29.75,ENE,63,0.0,2.0,88,0.00,,---,0.00,0.00,VWS V14.01,2013-01-16 10:17:00,
2013-01-16 05:22:00,30.1,26.7,29.74,ENE,63,0.0,0.0,87,0.00,,---,0.00,0.00,VWS V14.01,2013-01-16 10:22:00,
2013-01-16 05:27:00,29.9,26.5,29.73,ENE,63,0.0,4.0,87,0.00,,---,0.00,0.00,VWS V14.01,2013-01-16 10:27:00,
2013-01-16 05:32:00,29.8,26.4,29.73,ENE,63,0.0,2.0,87,0.00,,---,0.00,0.00,VWS V14.01,2013-01-16 10:32:00,
2013-01-16 05:37:00,29.6,25.9,29.73,ENE,63,0.0,3.0,86,0.00,,---,0.00,0.00,VWS V14.01,2013-01-16 10:37:00,
2013-01-16 05:42:00,29.5,25.8,29.73,ENE,63,0.0,0.0,86,0.00,,---,0.00,0.00,VWS V14.01,2013-01-16 10:42:00,
2013-01-16 05:47:00,29.5,25.8,29.73,ENE,63,0.0,0.0,86,0.00,,---,0.00,0.00,VWS V14.01,2013-01-16 10:47:00,
2013-01-16 05:52:00,29.5,25.8,29.74,ENE,63,0.0,0.0,86,0.00,,---,0.00,0.00,VWS V14.01,2013-01-16 10:52:00,
2013-01-16 05:57:00,29.6,26.2,29.75,ENE,63,0.0,0.0,87,0.00,,---,0.00,0.00,VWS V14.01,2013-01-16 10:57:00,
2013-01-16 06:02:00,29.7,26.3,29.75,ENE,63,0.0,0.0,87,0.00,,---,0.00,0.00,VWS V14.01,2013-01-16 11:02:00,
2013-01-16 06:07:00,29.9,26.5,29.73,ENE,63,0.0,0.0,87,0.00,,---,0.00,0.00,VWS V14.01,2013-01-16 11:07:00,
2013-01-16 06:12:00,29.9,26.5,29.74,ENE,63,0.0,1.0,87,0.00,,---,0.00,0.00,VWS V14.01,2013-01-16 11:12:00,
2013-01-16 06:17:00,30.0,26.6,29.73,ENE,63,0.0,3.0,87,0.00,,---,0.00,0.00,VWS V14.01,2013-01-16 11:17:00,
2013-01-16 06:22:00,30.0,26.6,29.74,ENE,63,0.0,0.0,87,0.00,,---,0.00,0.00,VWS V14.01,2013-01-16 11:22:00,
2013-01-16 06:27:00,30.1,26.7,29.73,ENE,63,3.0,3.0,87,0.00,,---,0.00,0.00,VWS V14.01,2013-01-16 11:27:00,
2013-01-16 06:32:00,30.0,26.6,29.72,ENE,63,2.0,2.0,87,0.00,,---,0.00,0.00,VWS V14.01,2013-01-16 11:32:00,
2013-01-16 06:37:00,29.9,26.5,29.73,ENE,63,0.0,0.0,87,0.00,,---,0.00,0.00,VWS V14.01,2013-01-16 11:37:00,
2013-01-16 06:42:00,30.0,26.6,29.74,ENE,63,3.0,4.0,87,0.00,,---,0.00,0.00,VWS V14.01,2013-01-16 11:42:00,
2013-01-16 06:47:00,30.1,27.0,29.73,ENE,63,5.0,5.0,88,0.00,,---,0.00,0.00,VWS V14.01,2013-01-16 11:47:00,
2013-01-16 06:52:00,30.2,27.1,29.73,ENE,63,3.0,5.0,88,0.00,,---,0.00,0.00,VWS V14.01,2013-01-16 11:52:00,
2013-01-16 06:57:00,30.1,27.0,29.72,ENE,63,4.0,4.0,88,0.00,,---,0.00,0.00,VWS V14.01,2013-01-16 11:57:00,
2013-01-16 07:02:00,30.1,27.0,29.73,ENE,60,5.0,6.0,88,0.00,,---,0.00,0.00,VWS V14.01,2013-01-16 12:02:00,
2013-01-16 07:07:00,30.0,26.9,29.73,NE,40,7.0,7.0,88,0.00,,---,0.00,0.00,VWS V14.01,2013-01-16 12:07:00,
2013-01-16 07:12:00,29.9,26.8,29.74,NE,35,3.0,4.0,88,0.00,,---,0.00,0.00,VWS V14.01,2013-01-16 12:12:00,
2013-01-16 07:17:00,29.9,26.8,29.73,NE,34,3.0,4.0,88,0.00,,---,0.00,0.00,VWS V14.01,2013-01-16 12:17:00,
2013-01-16 07:22:00,30.0,26.9,29.73,NE,34,0.0,2.0,88,0.00,,---,0.00,0.00,VWS V14.01,2013-01-16 12:22:00,
2013-01-16 07:27:00,30.0,26.9,29.72,NE,34,2.0,3.0,88,0.00,,---,0.00,0.00,VWS V14.01,2013-01-16 12:27:00,
2013-01-16 07:32:00,29.9,26.8,29.72,NE,34,0.0,1.0,88,0.00,,---,0.00,0.00,VWS V14.01,2013-01-16 12:32:00,
2013-01-16 07:37:00,29.8,26.7,29.73,NE,34,0.0,0.0,88,0.00,,---,0.00,0.00,VWS V14.01,2013-01-16 12:37:00,
2013-01-16 07:42:00,29.8,26.7,29.73,NE,34,0.0,0.0,88,0.00,,---,0.00,0.00,VWS V14.01,2013-01-16 12:42:00,
2013-01-16 07:47:00,29.8,26.7,29.73,NE,34,0.0,0.0,88,0.00,,---,0.00,0.00,VWS V14.01,2013-01-16 12:47:00,
2013-01-16 07:52:00,29.7,26.6,29.73,NE,34,0.0,0.0,88,0.00,,---,0.00,0.00,VWS V14.01,2013-01-16 12:52:00,
2013-01-16 07:57:00,29.7,26.6,29.73,NE,34,0.0,0.0,88,0.00,,---,0.00,0.00,VWS V14.01,2013-01-16 12:57:00,
2013-01-16 08:02:00,29.7,26.6,29.73,NE,34,0.0,0.0,88,0.00,,---,0.00,0.00,VWS V14.01,2013-01-16 13:02:00,
2013-01-16 08:07:00,29.8,26.7,29.73,NE,34,0.0,0.0,88,0.00,,---,0.00,0.00,VWS V14.01,2013-01-16 13:07:00,
2013-01-16 08:12:00,29.8,26.7,29.72,NE,34,0.0,0.0,88,0.00,,---,0.00,7.00,VWS V14.01,2013-01-16 13:12:00,
2013-01-16 08:17:00,29.8,26.7,29.72,NE,34,0.0,0.0,88,0.00,,---,0.00,9.00,VWS V14.01,2013-01-16 13:17:00,
2013-01-16 08:22:00,29.7,26.6,29.73,NE,34,0.0,0.0,88,0.00,,---,0.00,7.00,VWS V14.01,2013-01-16 13:22:00,
2013-01-16 08:27:00,29.5,26.4,29.73,NE,34,0.0,0.0,88,0.00,,---,0.00,9.00,VWS V14.01,2013-01-16 13:27:00,
2013-01-16 08:32:00,29.3,26.2,29.75,NE,34,0.0,0.0,88,0.00,,---,0.00,9.00,VWS V14.01,2013-01-16 13:32:00,
2013-01-16 08:37:00,29.1,26.0,29.75,NE,34,0.0,0.0,88,0.00,,---,0.00,9.00,VWS V14.01,2013-01-16 13:37:00,
2013-01-16 08:42:00,29.1,26.0,29.74,NE,34,3.0,3.0,88,0.00,,---,0.00,16.00,VWS V14.01,2013-01-16 13:42:00,
2013-01-16 08:47:00,29.2,26.1,29.73,NE,34,3.0,4.0,88,0.00,,---,0.00,21.00,VWS V14.01,2013-01-16 13:47:00,
2013-01-16 08:52:00,29.4,26.6,29.73,NE,34,0.0,0.0,89,0.00,,---,0.00,26.00,VWS V14.01,2013-01-16 13:52:00,
2013-01-16 08:57:00,29.5,26.7,29.73,NE,34,2.0,3.0,89,0.00,,---,0.00,35.00,VWS V14.01,2013-01-16 13:57:00,
2013-01-16 09:02:00,29.7,26.9,29.73,NE,34,3.0,5.0,89,0.00,,---,0.00,44.00,VWS V14.01,2013-01-16 14:02:00,
2013-01-16 09:07:00,29.9,27.1,29.74,NNE,30,3.0,4.0,89,0.00,,---,0.00,46.00,VWS V14.01,2013-01-16 14:07:00,
2013-01-16 09:12:00,30.0,27.2,29.74,NNW,337,3.0,3.0,89,0.00,,---,0.00,54.00,VWS V14.01,2013-01-16 14:12:00,
2013-01-16 09:17:00,30.0,27.2,29.75,WNW,302,4.0,6.0,89,0.00,,---,0.00,62.00,VWS V14.01,2013-01-16 14:17:00,
2013-01-16 09:22:00,29.9,27.1,29.75,WNW,300,4.0,5.0,89,0.00,,---,0.00,69.00,VWS V14.01,2013-01-16 14:22:00,
2013-01-16 09:27:00,29.8,26.7,29.76,WNW,292,4.0,5.0,88,0.00,,---,0.00,77.00,VWS V14.01,2013-01-16 14:27:00,
2013-01-16 09:32:00,29.8,26.7,29.76,WNW,289,4.0,5.0,88,0.00,,---,0.00,81.00,VWS V14.01,2013-01-16 14:32:00,
2013-01-16 09:37:00,29.8,26.7,29.76,WNW,289,2.0,3.0,88,0.00,,---,0.00,86.00,VWS V14.01,2013-01-16 14:37:00,
2013-01-16 09:42:00,29.9,26.8,29.76,WNW,289,3.0,3.0,88,0.00,,---,0.00,91.00,VWS V14.01,2013-01-16 14:42:00,
2013-01-16 09:47:00,30.1,27.0,29.76,WNW,287,5.0,6.0,88,0.00,,---,0.00,88.00,VWS V14.01,2013-01-16 14:47:00,
2013-01-16 09:52:00,30.2,27.1,29.76,WNW,286,4.0,4.0,88,0.00,,---,0.00,97.00,VWS V14.01,2013-01-16 14:52:00,
2013-01-16 09:57:00,30.3,27.2,29.75,WNW,284,5.0,6.0,88,0.00,,---,0.00,120.00,VWS V14.01,2013-01-16 14:57:00,
2013-01-16 10:02:00,30.5,27.1,29.76,West,263,5.0,9.0,87,0.00,,---,0.00,123.00,VWS V14.01,2013-01-16 15:02:00,
2013-01-16 10:07:00,30.6,27.2,29.75,West,261,4.0,5.0,87,0.00,,---,0.00,134.00,VWS V14.01,2013-01-16 15:07:00,
2013-01-16 10:12:00,30.6,26.9,29.76,WSW,251,5.0,6.0,86,0.00,,---,0.00,153.00,VWS V14.01,2013-01-16 15:12:00,
2013-01-16 10:17:00,30.8,27.1,29.76,West,261,5.0,10.0,86,0.00,,---,0.00,162.00,VWS V14.01,2013-01-16 15:17:00,
2013-01-16 10:22:00,30.9,27.2,29.75,West,259,3.0,5.0,86,0.00,,---,0.00,174.00,VWS V14.01,2013-01-16 15:22:00,
2013-01-16 10:27:00,31.1,27.4,29.76,WSW,257,6.0,6.0,86,0.00,,---,0.00,188.00,VWS V14.01,2013-01-16 15:27:00,
2013-01-16 10:32:00,31.2,27.5,29.76,WSW,256,5.0,6.0,86,0.00,,---,0.00,202.00,VWS V14.01,2013-01-16 15:32:00,
2013-01-16 10:37:00,31.4,27.4,29.76,WSW,250,7.0,8.0,85,0.00,,---,0.00,174.00,VWS V14.01,2013-01-16 15:37:00,
2013-01-16 10:42:00,31.5,27.5,29.76,WSW,256,7.0,7.0,85,0.00,,---,0.00,172.00,VWS V14.01,2013-01-16 15:42:00,
2013-01-16 10:47:00,31.6,27.3,29.75,West,276,6.0,7.0,84,0.00,,---,0.00,188.00,VWS V14.01,2013-01-16 15:47:00,
2013-01-16 10:52:00,31.7,27.4,29.75,WNW,288,6.0,7.0,84,0.00,,---,0.00,188.00,VWS V14.01,2013-01-16 15:52:00,
2013-01-16 10:57:00,31.9,27.6,29.75,WNW,294,5.0,7.0,84,0.00,,---,0.00,206.00,VWS V14.01,2013-01-16 15:57:00,
2013-01-16 11:02:00,32.1,27.8,29.75,West,272,4.0,7.0,84,0.00,,---,0.00,221.00,VWS V14.01,2013-01-16 16:02:00,
2013-01-16 11:07:00,32.2,27.6,29.75,West,261,10.0,10.0,83,0.00,,---,0.00,237.00,VWS V14.01,2013-01-16 16:07:00,
2013-01-16 11:12:00,32.3,27.7,29.75,West,273,5.0,5.0,83,0.00,,---,0.00,237.00,VWS V14.01,2013-01-16 16:12:00,
2013-01-16 11:17:00,32.4,27.5,29.74,WNW,290,4.0,6.0,82,0.00,,---,0.00,246.00,VWS V14.01,2013-01-16 16:17:00,
2013-01-16 11:22:00,32.5,27.3,29.74,WSW,256,10.0,12.0,81,0.00,,---,0.00,234.00,VWS V14.01,2013-01-16 16:22:00,
2013-01-16 11:27:00,32.5,27.3,29.73,West,271,5.0,8.0,81,0.00,,---,0.00,199.00,VWS V14.01,2013-01-16 16:27:00,
2013-01-16 11:32:00,32.6,27.4,29.74,WNW,287,7.0,7.0,81,0.00,,---,0.00,176.00,VWS V14.01,2013-01-16 16:32:00,
2013-01-16 11:37:00,32.7,27.5,29.74,WNW,286,3.0,4.0,81,0.00,,---,0.00,183.00,VWS V14.01,2013-01-16 16:37:00,
2013-01-16 11:42:00,32.8,27.3,29.73,WSW,244,5.0,6.0,80,0.00,,---,0.00,172.00,VWS V14.01,2013-01-16 16:42:00,
2013-01-16 11:47:00,32.8,27.3,29.75,West,268,5.0,10.0,80,0.00,,---,0.00,188.00,VWS V14.01,2013-01-16 16:47:00,
2013-01-16 11:52:00,32.8,27.3,29.74,WNW,302,6.0,7.0,80,0.00,,---,0.00,213.00,VWS V14.01,2013-01-16 16:52:00,
2013-01-16 11:57:00,33.0,27.5,29.74,WNW,295,5.0,5.0,80,0.00,,---,0.00,213.00,VWS V14.01,2013-01-16 16:57:00,
2013-01-16 12:02:00,33.2,27.7,29.74,WNW,296,3.0,4.0,80,0.00,,---,0.00,255.00,VWS V14.01,2013-01-16 17:02:00,
2013-01-16 12:07:00,33.4,27.9,29.73,WNW,290,2.0,3.0,80,0.00,,---,0.00,283.00,VWS V14.01,2013-01-16 17:07:00,
2013-01-16 12:12:00,33.7,28.2,29.73,WNW,303,10.0,10.0,80,0.00,,---,0.00,264.00,VWS V14.01,2013-01-16 17:12:00,
2013-01-16 12:17:00,33.6,27.8,29.73,WNW,296,5.0,5.0,79,0.00,,---,0.00,278.00,VWS V14.01,2013-01-16 17:17:00,
2013-01-16 12:22:00,33.7,28.2,29.72,WNW,299,4.0,4.0,80,0.00,,---,0.00,267.00,VWS V14.01,2013-01-16 17:22:00,
2013-01-16 12:27:00,33.8,28.0,29.72,NW,308,11.0,11.0,79,0.00,,---,0.00,267.00,VWS V14.01,2013-01-16 17:27:00,
2013-01-16 12:32:00,33.9,27.8,29.71,WNW,288,4.0,6.0,78,0.00,,---,0.00,278.00,VWS V14.01,2013-01-16 17:32:00,
2013-01-16 12:37:00,34.0,27.9,29.71,WNW,299,4.0,5.0,78,0.00,,---,0.00,283.00,VWS V14.01,2013-01-16 17:37:00,
2013-01-16 12:42:00,34.1,28.0,29.71,WNW,284,5.0,9.0,78,0.00,,---,0.00,313.00,VWS V14.01,2013-01-16 17:42:00,
2013-01-16 12:47:00,34.1,27.7,29.71,West,281,7.0,7.0,77,0.00,,---,0.00,292.00,VWS V14.01,2013-01-16 17:47:00,
2013-01-16 12:52:00,34.0,27.6,29.71,WNW,292,4.0,10.0,77,0.00,,---,0.00,299.00,VWS V14.01,2013-01-16 17:52:00,
2013-01-16 12:57:00,34.1,28.0,29.71,WNW,296,5.0,12.0,78,0.00,,---,0.00,278.00,VWS V14.01,2013-01-16 17:57:00,
2013-01-16 13:02:00,34.2,27.8,29.71,WNW,284,7.0,9.0,77,0.00,,---,0.00,262.00,VWS V14.01,2013-01-16 18:02:00,
2013-01-16 13:07:00,34.1,27.3,29.70,WNW,286,5.0,6.0,76,0.00,,---,0.00,260.00,VWS V14.01,2013-01-16 18:07:00,
2013-01-16 13:11:00,34.1,27.7,29.70,West,272,10.0,10.0,77,0.00,,---,0.00,271.00,VWS V14.01,2013-01-16 18:11:00,
2013-01-16 13:17:00,34.2,27.8,29.70,WNW,296,3.0,6.0,77,0.00,,---,0.00,278.00,VWS V14.01,2013-01-16 18:17:00,
2013-01-16 13:22:00,34.4,28.3,29.71,WNW,296,5.0,6.0,78,0.00,,---,0.00,267.00,VWS V14.01,2013-01-16 18:22:00,
2013-01-16 13:27:00,34.4,27.6,29.71,West,268,6.0,8.0,76,0.00,,---,0.00,281.00,VWS V14.01,2013-01-16 18:27:00,
2013-01-16 13:32:00,34.4,27.6,29.71,West,279,4.0,7.0,76,0.00,,---,0.00,257.00,VWS V14.01,2013-01-16 18:32:00,
2013-01-16 13:37:00,34.4,27.3,29.71,WNW,286,5.0,7.0,75,0.00,,---,0.00,241.00,VWS V14.01,2013-01-16 18:37:00,
2013-01-16 13:42:00,34.4,27.0,29.71,West,277,7.0,7.0,74,0.00,,---,0.00,232.00,VWS V14.01,2013-01-16 18:42:00,
2013-01-16 13:47:00,34.4,27.0,29.71,WSW,248,10.0,10.0,74,0.00,,---,0.00,230.00,VWS V14.01,2013-01-16 18:47:00,
2013-01-16 13:52:00,34.4,26.7,29.70,West,275,5.0,6.0,73,0.00,,---,0.00,241.00,VWS V14.01,2013-01-16 18:52:00,
2013-01-16 13:57:00,34.4,26.3,29.71,WSW,246,7.0,10.0,72,0.00,,---,0.00,236.00,VWS V14.01,2013-01-16 18:57:00,
2013-01-16 14:02:00,34.4,25.6,29.70,WNW,289,5.0,9.0,70,0.00,,---,0.00,230.00,VWS V14.01,2013-01-16 19:02:00,
2013-01-16 14:07:00,34.5,25.7,29.70,WNW,288,2.0,4.0,70,0.00,,---,0.00,230.00,VWS V14.01,2013-01-16 19:07:00,
2013-01-16 14:12:00,34.8,25.7,29.70,West,260,7.0,11.0,69,0.00,,---,0.00,221.00,VWS V14.01,2013-01-16 19:12:00,
2013-01-16 14:17:00,34.8,25.7,29.69,West,262,6.0,8.0,69,0.00,,---,0.00,221.00,VWS V14.01,2013-01-16 19:17:00,
2013-01-16 14:22:00,34.9,26.1,29.70,West,267,5.0,6.0,70,0.00,,---,0.00,227.00,VWS V14.01,2013-01-16 19:22:00,
2013-01-16 14:27:00,35.0,25.9,29.70,WNW,284,7.0,10.0,69,0.00,,---,0.00,206.00,VWS V14.01,2013-01-16 19:27:00,
2013-01-16 14:32:00,35.0,25.9,29.71,West,261,5.0,11.0,69,0.00,,---,0.00,211.00,VWS V14.01,2013-01-16 19:32:00,
2013-01-16 14:37:00,34.9,25.8,29.70,WNW,283,5.0,10.0,69,0.00,,---,0.00,199.00,VWS V14.01,2013-01-16 19:37:00,
2013-01-16 14:42:00,34.9,25.8,29.70,WSW,257,9.0,11.0,69,0.00,,---,0.00,197.00,VWS V14.01,2013-01-16 19:42:00,
2013-01-16 14:47:00,34.8,25.3,29.70,SW,233,7.0,8.0,68,0.00,,---,0.00,197.00,VWS V14.01,2013-01-16 19:47:00,
2013-01-16 14:52:00,34.6,25.1,29.70,WSW,253,7.0,12.0,68,0.00,,---,0.00,197.00,VWS V14.01,2013-01-16 19:52:00,
2013-01-16 14:57:00,34.4,25.0,29.70,WSW,238,7.0,12.0,68,0.00,,---,0.00,193.00,VWS V14.01,2013-01-16 19:57:00,
2013-01-16 15:02:00,34.4,25.0,29.70,SW,233,7.0,11.0,68,0.00,,---,0.00,195.00,VWS V14.01,2013-01-16 20:02:00,
2013-01-16 15:06:00,34.4,25.0,29.70,WSW,237,7.0,11.0,68,0.00,,---,0.00,188.00,VWS V14.01,2013-01-16 20:06:00,
2013-01-16 15:12:00,34.4,25.0,29.70,WSW,245,10.0,16.0,68,0.00,,---,0.00,171.00,VWS V14.01,2013-01-16 20:12:00,
2013-01-16 15:16:00,34.4,25.6,29.70,SW,232,5.0,9.0,70,0.00,,---,0.00,165.00,VWS V14.01,2013-01-16 20:16:00,
2013-01-16 15:22:00,34.4,26.0,29.70,SW,233,6.0,11.0,71,0.00,,---,0.00,148.00,VWS V14.01,2013-01-16 20:22:00,
2013-01-16 15:27:00,34.3,25.2,29.69,SW,230,7.0,10.0,69,0.00,,---,0.00,141.00,VWS V14.01,2013-01-16 20:27:00,
2013-01-16 15:31:00,34.2,25.1,29.70,WSW,252,6.0,11.0,69,0.00,,---,0.00,137.00,VWS V14.01,2013-01-16 20:31:00,
2013-01-16 15:36:00,34.2,25.8,29.70,WSW,239,3.0,5.0,71,0.00,,---,0.00,132.00,VWS V14.01,2013-01-16 20:36:00,
2013-01-16 15:41:00,34.2,25.5,29.70,SW,234,5.0,8.0,70,0.00,,---,0.00,132.00,VWS V14.01,2013-01-16 20:41:00,
2013-01-16 15:46:00,34.2,24.8,29.70,South,179,7.0,12.0,68,0.00,,---,0.00,125.00,VWS V14.01,2013-01-16 20:46:00,
2013-01-16 15:51:00,34.1,24.7,29.70,WSW,245,6.0,9.0,68,0.00,,---,0.00,116.00,VWS V14.01,2013-01-16 20:51:00,
2013-01-16 15:56:00,34.2,25.1,29.70,SW,236,6.0,6.0,69,0.00,,---,0.00,111.00,VWS V14.01,2013-01-16 20:56:00,
2013-01-16 16:01:00,34.2,25.5,29.70,SW,230,10.0,10.0,70,0.00,,---,0.00,100.00,VWS V14.01,2013-01-16 21:01:00,
2013-01-16 16:06:00,34.1,25.0,29.70,SW,230,9.0,11.0,69,0.00,,---,0.00,97.00,VWS V14.01,2013-01-16 21:06:00,
2013-01-16 16:11:00,34.1,25.0,29.71,SW,225,6.0,9.0,69,0.00,,---,0.00,88.00,VWS V14.01,2013-01-16 21:11:00,
2013-01-16 16:16:00,34.1,25.4,29.71,SW,236,9.0,10.0,70,0.00,,---,0.00,84.00,VWS V14.01,2013-01-16 21:16:00,
2013-01-16 16:21:00,34.0,25.6,29.71,WSW,242,5.0,9.0,71,0.00,,---,0.00,72.00,VWS V14.01,2013-01-16 21:21:00,
2013-01-16 16:26:00,33.9,25.5,29.71,SW,223,9.0,11.0,71,0.00,,---,0.00,69.00,VWS V14.01,2013-01-16 21:26:00,
2013-01-16 16:31:00,33.8,25.1,29.71,SW,234,4.0,12.0,70,0.00,,---,0.00,63.00,VWS V14.01,2013-01-16 21:31:00,
2013-01-16 16:36:00,33.8,24.7,29.72,SW,218,3.0,11.0,69,0.00,,---,0.00,56.00,VWS V14.01,2013-01-16 21:36:00,
2013-01-16 16:41:00,33.7,24.6,29.72,SW,232,6.0,14.0,69,0.00,,---,0.00,53.00,VWS V14.01,2013-01-16 21:41:00,
2013-01-16 16:46:00,33.7,24.6,29.72,WSW,240,10.0,11.0,69,0.00,,---,0.00,47.00,VWS V14.01,2013-01-16 21:46:00,
2013-01-16 16:51:00,33.6,24.5,29.72,SW,232,2.0,9.0,69,0.00,,---,0.00,40.00,VWS V14.01,2013-01-16 21:51:00,
2013-01-16 16:56:00,33.6,24.9,29.72,SW,225,2.0,5.0,70,0.00,,---,0.00,33.00,VWS V14.01,2013-01-16 21:56:00,
2013-01-16 17:01:00,33.5,24.8,29.73,SW,217,5.0,10.0,70,0.00,,---,0.00,30.00,VWS V14.01,2013-01-16 22:01:00,
2013-01-16 17:06:00,33.4,25.0,29.72,SW,225,3.0,7.0,71,0.00,,---,0.00,25.00,VWS V14.01,2013-01-16 22:06:00,
2013-01-16 17:11:00,33.4,25.0,29.72,SSW,210,5.0,10.0,71,0.00,,---,0.00,19.00,VWS V14.01,2013-01-16 22:11:00,
2013-01-16 17:16:00,33.4,25.0,29.73,SW,232,9.0,11.0,71,0.00,,---,0.00,14.00,VWS V14.01,2013-01-16 22:16:00,
2013-01-16 17:21:00,33.3,24.9,29.74,SW,225,6.0,9.0,71,0.00,,---,0.00,11.00,VWS V14.01,2013-01-16 22:21:00,
2013-01-16 17:26:00,33.3,24.9,29.74,SW,225,5.0,12.0,71,0.00,,---,0.00,7.00,VWS V14.01,2013-01-16 22:26:00,
2013-01-16 17:31:00,33.2,24.8,29.73,WSW,237,9.0,16.0,71,0.00,,---,0.00,0.00,VWS V14.01,2013-01-16 22:31:00,
2013-01-16 17:36:00,33.2,24.5,29.74,SSW,212,9.0,11.0,70,0.00,,---,0.00,0.00,VWS V14.01,2013-01-16 22:36:00,
2013-01-16 17:41:00,33.2,24.5,29.73,WSW,237,7.0,11.0,70,0.00,,---,0.00,0.00,VWS V14.01,2013-01-16 22:41:00,
2013-01-16 17:46:00,33.1,24.7,29.74,WSW,238,6.0,11.0,71,0.00,,---,0.00,0.00,VWS V14.01,2013-01-16 22:46:00,
2013-01-16 17:51:00,33.1,24.7,29.74,SW,233,6.0,11.0,71,0.00,,---,0.00,0.00,VWS V14.01,2013-01-16 22:51:00,
2013-01-16 17:56:00,33.0,24.6,29.74,SW,229,5.0,11.0,71,0.00,,---,0.00,0.00,VWS V14.01,2013-01-16 22:56:00,
2013-01-16 18:01:00,33.0,24.6,29.75,SW,229,6.0,10.0,71,0.00,,---,0.00,0.00,VWS V14.01,2013-01-16 23:01:00,
2013-01-16 18:06:00,33.0,24.6,29.75,WSW,242,8.0,9.0,71,0.00,,---,0.00,0.00,VWS V14.01,2013-01-16 23:06:00,
2013-01-16 18:11:00,33.0,24.6,29.75,WSW,246,6.0,11.0,71,0.00,,---,0.00,0.00,VWS V14.01,2013-01-16 23:11:00,
2013-01-16 18:16:00,33.0,24.6,29.75,WSW,241,5.0,7.0,71,0.00,,---,0.00,0.00,VWS V14.01,2013-01-16 23:16:00,
2013-01-16 18:21:00,33.0,24.6,29.75,WSW,239,10.0,10.0,71,0.00,,---,0.00,0.00,VWS V14.01,2013-01-16 23:21:00,
2013-01-16 18:26:00,32.9,24.5,29.75,WSW,241,7.0,7.0,71,0.00,,---,0.00,0.00,VWS V14.01,2013-01-16 23:26:00,
2013-01-16 18:31:00,32.9,24.5,29.75,WSW,248,6.0,8.0,71,0.00,,---,0.00,0.00,VWS V14.01,2013-01-16 23:31:00,
2013-01-16 18:36:00,32.8,24.5,29.75,West,260,9.0,10.0,71,0.00,,---,0.00,0.00,VWS V14.01,2013-01-16 23:36:00,
2013-01-16 18:41:00,32.8,24.5,29.75,WSW,248,6.0,7.0,71,0.00,,---,0.00,0.00,VWS V14.01,2013-01-16 23:41:00,
2013-01-16 18:46:00,32.7,24.7,29.75,WSW,248,6.0,6.0,72,0.00,,---,0.00,0.00,VWS V14.01,2013-01-16 23:46:00,
2013-01-16 18:51:00,32.7,24.7,29.75,WSW,238,7.0,8.0,72,0.00,,---,0.00,0.00,VWS V14.01,2013-01-16 23:51:00,
2013-01-16 18:56:00,32.6,24.6,29.76,WSW,242,6.0,8.0,72,0.00,,---,0.00,0.00,VWS V14.01,2013-01-16 23:56:00,
2013-01-16 19:01:00,32.6,24.9,29.75,WSW,240,7.0,7.0,73,0.00,,---,0.00,0.00,VWS V14.01,2013-01-17 00:01:00,
2013-01-16 19:06:00,32.5,24.8,29.75,WSW,239,12.0,12.0,73,0.00,,---,0.00,0.00,VWS V14.01,2013-01-17 00:06:00,
2013-01-16 19:11:00,32.5,24.8,29.76,WSW,242,5.0,6.0,73,0.00,,---,0.00,0.00,VWS V14.01,2013-01-17 00:11:00,
2013-01-16 19:16:00,32.5,24.8,29.76,WSW,240,5.0,7.0,73,0.00,,---,0.00,0.00,VWS V14.01,2013-01-17 00:16:00,
2013-01-16 19:21:00,32.5,24.8,29.75,WSW,244,6.0,11.0,73,0.00,,---,0.00,0.00,VWS V14.01,2013-01-17 00:21:00,
2013-01-16 19:26:00,32.4,25.0,29.76,SW,231,7.0,10.0,74,0.00,,---,0.00,0.00,VWS V14.01,2013-01-17 00:26:00,
2013-01-16 19:31:00,32.4,25.0,29.75,SW,235,4.0,11.0,74,0.00,,---,0.00,0.00,VWS V14.01,2013-01-17 00:31:00,
2013-01-16 19:36:00,32.3,25.3,29.75,SW,234,8.0,9.0,75,0.00,,---,0.00,0.00,VWS V14.01,2013-01-17 00:36:00,
2013-01-16 19:41:00,32.2,25.2,29.76,SW,234,2.0,10.0,75,0.00,,---,0.00,0.00,VWS V14.01,2013-01-17 00:41:00,
2013-01-16 19:46:00,32.1,25.4,29.75,SW,216,0.0,5.0,76,0.00,,---,0.00,0.00,VWS V14.01,2013-01-17 00:46:00,
2013-01-16 19:51:00,32.0,25.3,29.75,SW,229,5.0,6.0,76,0.00,,---,0.00,0.00,VWS V14.01,2013-01-17 00:51:00,
2013-01-16 19:56:00,32.0,25.3,29.76,SW,223,2.0,9.0,76,0.00,,---,0.00,0.00,VWS V14.01,2013-01-17 00:56:00,
2013-01-16 20:01:00,31.9,25.5,29.76,SW,221,3.0,10.0,77,0.00,,---,0.00,0.00,VWS V14.01,2013-01-17 01:01:00,
2013-01-16 20:06:00,31.8,25.4,29.76,SW,232,3.0,6.0,77,0.00,,---,0.00,0.00,VWS V14.01,2013-01-17 01:06:00,
2013-01-16 20:11:00,31.8,25.4,29.76,SW,216,2.0,4.0,77,0.00,,---,0.00,0.00,VWS V14.01,2013-01-17 01:11:00,
2013-01-16 20:16:00,31.8,25.4,29.76,SW,220,6.0,7.0,77,0.00,,---,0.00,0.00,VWS V14.01,2013-01-17 01:16:00,
2013-01-16 20:21:00,31.8,25.4,29.76,SW,231,6.0,9.0,77,0.00,,---,0.00,0.00,VWS V14.01,2013-01-17 01:21:00,
2013-01-16 20:26:00,31.7,25.3,29.76,SW,225,4.0,10.0,77,0.00,,---,0.00,0.00,VWS V14.01,2013-01-17 01:26:00,
2013-01-16 20:31:00,31.7,25.3,29.76,SW,232,6.0,7.0,77,0.00,,---,0.00,0.00,VWS V14.01,2013-01-17 01:31:00,
2013-01-16 20:36:00,31.8,25.4,29.76,WSW,239,6.0,7.0,77,0.00,,---,0.00,0.00,VWS V14.01,2013-01-17 01:36:00,
2013-01-16 20:41:00,31.8,25.4,29.77,SW,236,9.0,9.0,77,0.00,,---,0.00,0.00,VWS V14.01,2013-01-17 01:41:00,
2013-01-16 20:46:00,31.9,25.5,29.78,SW,236,4.0,11.0,77,0.00,,---,0.00,0.00,VWS V14.01,2013-01-17 01:46:00,
2013-01-16 20:51:00,31.9,25.5,29.78,SW,223,5.0,7.0,77,0.00,,---,0.00,0.00,VWS V14.01,2013-01-17 01:51:00,
2013-01-16 20:56:00,31.9,25.5,29.78,SW,223,6.0,12.0,77,0.00,,---,0.00,0.00,VWS V14.01,2013-01-17 01:56:00,
2013-01-16 21:01:00,31.9,25.5,29.78,WSW,238,6.0,7.0,77,0.00,,---,0.00,0.00,VWS V14.01,2013-01-17 02:01:00,
2013-01-16 21:06:00,31.9,25.5,29.78,SW,236,8.0,10.0,77,0.00,,---,0.00,0.00,VWS V14.01,2013-01-17 02:06:00,
2013-01-16 21:11:00,32.0,25.3,29.78,WSW,244,7.0,11.0,76,0.00,,---,0.00,0.00,VWS V14.01,2013-01-17 02:11:00,
2013-01-16 21:16:00,32.0,25.3,29.79,WSW,239,5.0,9.0,76,0.00,,---,0.00,0.00,VWS V14.01,2013-01-17 02:16:00,
2013-01-16 21:21:00,32.0,25.3,29.79,SW,236,8.0,12.0,76,0.00,,---,0.00,0.00,VWS V14.01,2013-01-17 02:21:00,
2013-01-16 21:26:00,31.9,25.2,29.79,WSW,249,8.0,11.0,76,0.00,,---,0.00,0.00,VWS V14.01,2013-01-17 02:26:00,
2013-01-16 21:31:00,32.0,25.3,29.79,SW,236,8.0,14.0,76,0.00,,---,0.00,0.00,VWS V14.01,2013-01-17 02:31:00,
2013-01-16 21:36:00,32.0,25.0,29.79,WSW,238,13.0,14.0,75,0.00,,---,0.00,0.00,VWS V14.01,2013-01-17 02:36:00,
2013-01-16 21:41:00,32.0,25.0,29.78,WSW,253,7.0,9.0,75,0.00,,---,0.00,0.00,VWS V14.01,2013-01-17 02:41:00,
2013-01-16 21:46:00,32.1,25.1,29.78,WSW,252,5.0,9.0,75,0.00,,---,0.00,0.00,VWS V14.01,2013-01-17 02:46:00,
2013-01-16 21:51:00,32.1,24.8,29.77,West,263,6.0,12.0,74,0.00,,---,0.00,0.00,VWS V14.01,2013-01-17 02:51:00,
2013-01-16 21:56:00,32.1,24.8,29.78,WSW,254,6.0,9.0,74,0.00,,---,0.00,0.00,VWS V14.01,2013-01-17 02:56:00,
2013-01-16 22:01:00,32.1,24.4,29.78,West,265,15.0,15.0,73,0.00,,---,0.00,0.00,VWS V14.01,2013-01-17 03:01:00,
2013-01-16 22:06:00,32.2,24.2,29.77,West,260,10.0,11.0,72,0.00,,---,0.00,0.00,VWS V14.01,2013-01-17 03:06:00,
2013-01-16 22:11:00,32.3,24.0,29.78,WSW,258,8.0,13.0,71,0.00,,---,0.00,0.00,VWS V14.01,2013-01-17 03:11:00,
2013-01-16 22:16:00,32.4,23.7,29.78,West,259,9.0,13.0,70,0.00,,---,0.00,0.00,VWS V14.01,2013-01-17 03:16:00,
2013-01-16 22:21:00,32.5,23.5,29.77,WSW,256,6.0,16.0,69,0.00,,---,0.00,0.00,VWS V14.01,2013-01-17 03:21:00,
2013-01-16 22:26:00,32.6,23.6,29.78,West,265,7.0,10.0,69,0.00,,---,0.00,0.00,VWS V14.01,2013-01-17 03:26:00,
2013-01-16 22:31:00,32.6,23.6,29.78,West,271,6.0,13.0,69,0.00,,---,0.00,0.00,VWS V14.01,2013-01-17 03:31:00,
2013-01-16 22:36:00,32.7,23.7,29.78,WNW,287,13.0,17.0,69,0.00,,---,0.00,0.00,VWS V14.01,2013-01-17 03:36:00,
2013-01-16 22:41:00,32.8,23.4,29.78,WNW,286,9.0,11.0,68,0.00,,---,0.00,0.00,VWS V14.01,2013-01-17 03:41:00,
2013-01-16 22:46:00,32.8,23.4,29.77,West,281,11.0,13.0,68,0.00,,---,0.00,0.00,VWS V14.01,2013-01-17 03:46:00,
2013-01-16 22:51:00,32.8,23.4,29.77,West,263,6.0,10.0,68,0.00,,---,0.00,0.00,VWS V14.01,2013-01-17 03:51:00,
2013-01-16 22:56:00,32.7,23.3,29.77,WNW,283,7.0,7.0,68,0.00,,---,0.00,0.00,VWS V14.01,2013-01-17 03:56:00,
2013-01-16 23:01:00,32.7,23.7,29.77,West,259,5.0,12.0,69,0.00,,---,0.00,0.00,VWS V14.01,2013-01-17 04:01:00,
2013-01-16 23:06:00,32.6,23.6,29.78,West,260,9.0,12.0,69,0.00,,---,0.00,0.00,VWS V14.01,2013-01-17 04:06:00,
2013-01-16 23:11:00,32.4,23.4,29.78,West,261,5.0,6.0,69,0.00,,---,0.00,0.00,VWS V14.01,2013-01-17 04:11:00,
2013-01-16 23:16:00,32.3,23.6,29.78,WSW,257,10.0,10.0,70,0.00,,---,0.00,0.00,VWS V14.01,2013-01-17 04:16:00,
2013-01-16 23:21:00,32.3,23.3,29.79,WNW,283,6.0,7.0,69,0.00,,---,0.00,0.00,VWS V14.01,2013-01-17 04:21:00,
2013-01-16 23:26:00,32.2,23.5,29.78,West,275,3.0,6.0,70,0.00,,---,0.00,0.00,VWS V14.01,2013-01-17 04:26:00,
2013-01-16 23:31:00,32.3,23.6,29.79,WNW,286,6.0,7.0,70,0.00,,---,0.00,0.00,VWS V14.01,2013-01-17 04:31:00,
2013-01-16 23:36:00,32.3,23.6,29.79,West,275,8.0,9.0,70,0.00,,---,0.00,0.00,VWS V14.01,2013-01-17 04:36:00,
2013-01-16 23:41:00,32.3,24.0,29.79,West,264,4.0,10.0,71,0.00,,---,0.00,0.00,VWS V14.01,2013-01-17 04:41:00,
2013-01-16 23:46:00,32.3,24.0,29.79,West,264,5.0,5.0,71,0.00,,---,0.00,0.00,VWS V14.01,2013-01-17 04:46:00,
2013-01-16 23:51:00,32.3,24.0,29.79,WSW,257,5.0,6.0,71,0.00,,---,0.00,0.00,VWS V14.01,2013-01-17 04:51:00,
2013-01-16 23:56:00,32.3,23.6,29.81,WSW,250,6.0,9.0,70,0.00,,---,0.00,0.00,VWS V14.01,2013-01-17 04:56:00,